Detall de PIREP

Printer-friendly versionPDF version

[2010/08/21 08:57:00]
Flight IATA:CT2110
Pilot Number:041
Company ICAO:CAT
Aircraft Type:F50/A
PAX:26
Aircraft Registration:PAOB
Departing Airport: LEVC
Destination Airport: LEST
Alternate Airport:LECO
Online: VATSIM
Route:CENTA A33 PRADO A33 CJN A33 HORTA A33 MAGIN A33 INDEG A33 DISKO A33 ZMR A33 BARKO A33 FORNO
Flight Level:FL190
No Slew and time accel
No pause
Crash detect
Detect pilot in Cockpit between each 30 and 45 minutes
08:57 Zero fuel Weight: 35102 Lbs, Fuel Weight: 5436 Lbs
08:57 VATSIM:LEVC 210830Z 00000KT CAVOK 28/19 Q1024 NOSIG
08:57 VATSIM:LEST 210830Z VRB02KT 9999 4000NW VCFG NSC 18/17 Q1024 NOSIG
08:57 VOICE CATALONIAN
08:59 Parking Brakes off
09:05 Take-off
09:05 Take off Weight: 40443 Lbs
09:05 Wind: 100º @ 002 Knots Heading: 296º
09:05 POS N39º 29´ 24´´ W000º 29´ 02´´
09:05 Gear Up: 126 Knots
09:05 Flaps:2 at 126 Knots
09:06 Flaps:1 at 157 Knots
09:06 Flaps:0 at 164 Knots
09:20 Wind:284º@011 Knots Heading: 298º Ground Speed: 198 Knots Altitude 18313 ft
09:20 TOC
09:20 Fuel Weight: 4784 Lb
09:35 Wind:269º@017 Knots Heading: 295º Ground Speed: 246 Knots Altitude 19386 ft
09:50 Wind:250º@017 Knots Heading: 293º Ground Speed: 252 Knots Altitude 19386 ft
10:05 Wind:241º@021 Knots Heading: 292º Ground Speed: 266 Knots Altitude 19373 ft
10:15 TOD
10:15 Fuel Weight: 3264 Lb
10:20 Wind:216º@023 Knots Heading: 299º Ground Speed: 245 Knots Altitude 14169 ft
10:35 Wind:206º@007 Knots Heading: 301º Ground Speed: 231 Knots Altitude 6010 ft
10:50 Wind:241º@003 Knots Heading: 327º Ground Speed: 206 Knots Altitude 3973 ft
10:51 Flaps:1 at 159 Knots
10:51 Flaps:2 at 142 Knots
10:54 Flaps:3 at 133 Knots
10:54 Gear Down: 131 Knots
10:54 Flaps:4 at 106 Knots
10:56 Flaps:5 at 121 Knots
10:58 TouchDown:Rate -108 ft/min Speed: 99 Knots
10:59 Flaps:0 at 63 Knots
10:59 VATSIM:LEST 211030Z VRB02KT 9999 FEW005 25/19 Q1024 NOSIG
10:59 Land
10:59 Wind:247º@002 Knots
10:59 Heading: 165º
10:59 Flight Duration: 01:54
10:59 Landing Weight: 37533 Lbs
10:59 POS N42º 54´ 12´´ W008º 25´ 03´´
11:03 Parking brakes on
11:03 Block to Block Duration: 02:04
11:03 Final Fuel: 2391 Lbls
11:03 Spent Fuel: 3044 Lbls
11:03 Flight Length: 431 NM
11:03 TOD Land Length: 150 NM

Exportar CSV

Powered by Drupal - Modified by Danger4k